sensor_id;sensor_type;location;lat;lon;timestamp;P1;durP1;ratioP1;P2;durP2;ratioP2
22219;SDS011;11279;48.364;10.904;2023-04-25T00:00:32;6.07;;;3.97;;
22219;SDS011;11279;48.364;10.904;2023-04-25T00:01:32;6.50;;;3.50;;
22219;SDS011;11279;48.364;10.904;2023-04-25T00:02:36;7.00;;;3.80;;
22219;SDS011;11279;48.364;10.904;2023-04-25T00:03:36;7.20;;;3.80;;
22219;SDS011;11279;48.364;10.904;2023-04-25T00:04:38;7.82;;;3.83;;
22219;SDS011;11279;48.364;10.904;2023-04-25T00:05:39;7.53;;;3.90;;
22219;SDS011;11279;48.364;10.904;2023-04-25T00:06:40;6.40;;;4.03;;
22219;SDS011;11279;48.364;10.904;2023-04-25T00:07:40;5.33;;;3.73;;
22219;SDS011;11279;48.364;10.904;2023-04-25T00:08:42;7.07;;;4.32;;
22219;SDS011;11279;48.364;10.904;2023-04-25T00:09:44;5.33;;;3.77;;
22219;SDS011;11279;48.364;10.904;2023-04-25T00:10:44;6.57;;;4.13;;
22219;SDS011;11279;48.364;10.904;2023-04-25T00:11:45;12.83;;;4.87;;
22219;SDS011;11279;48.364;10.904;2023-04-25T00:12:45;9.17;;;4.67;;
22219;SDS011;11279;48.364;10.904;2023-04-25T00:13:46;7.60;;;3.97;;
22219;SDS011;11279;48.364;10.904;2023-04-25T00:14:46;7.20;;;4.60;;
22219;SDS011;11279;48.364;10.904;2023-04-25T00:15:47;8.10;;;4.73;;
22219;SDS011;11279;48.364;10.904;2023-04-25T00:16:48;8.27;;;4.43;;
22219;SDS011;11279;48.364;10.904;2023-04-25T00:17:48;8.07;;;4.33;;
22219;SDS011;11279;48.364;10.904;2023-04-25T00:18:49;9.47;;;4.33;;
22219;SDS011;11279;48.364;10.904;2023-04-25T00:19:51;7.78;;;4.43;;
22219;SDS011;11279;48.364;10.904;2023-04-25T00:20:52;7.90;;;3.63;;
22219;SDS011;11279;48.364;10.904;2023-04-25T00:21:52;9.17;;;3.90;;
22219;SDS011;11279;48.364;10.904;2023-04-25T00:22:54;7.70;;;4.07;;
22219;SDS011;11279;48.364;10.904;2023-04-25T00:23:55;8.70;;;3.97;;
22219;SDS011;11279;48.364;10.904;2023-04-25T00:24:56;9.77;;;3.83;;
22219;SDS011;11279;48.364;10.904;2023-04-25T00:26:00;8.02;;;3.92;;
22219;SDS011;11279;48.364;10.904;2023-04-25T00:27:00;7.57;;;3.27;;
22219;SDS011;11279;48.364;10.904;2023-04-25T00:28:00;9.77;;;3.77;;
22219;SDS011;11279;48.364;10.904;2023-04-25T00:29:01;6.30;;;3.93;;
22219;SDS011;11279;48.364;10.904;2023-04-25T00:30:02;7.63;;;3.87;;
22219;SDS011;11279;48.364;10.904;2023-04-25T00:31:03;7.50;;;4.10;;
22219;SDS011;11279;48.364;10.904;2023-04-25T00:32:03;7.00;;;3.90;;
22219;SDS011;11279;48.364;10.904;2023-04-25T00:33:04;6.43;;;3.93;;
22219;SDS011;11279;48.364;10.904;2023-04-25T00:34:05;7.40;;;4.43;;
22219;SDS011;11279;48.364;10.904;2023-04-25T00:35:06;6.85;;;4.20;;
22219;SDS011;11279;48.364;10.904;2023-04-25T00:36:07;7.80;;;3.67;;
22219;SDS011;11279;48.364;10.904;2023-04-25T00:37:07;6.93;;;3.93;;
22219;SDS011;11279;48.364;10.904;2023-04-25T00:38:08;6.93;;;3.90;;
22219;SDS011;11279;48.364;10.904;2023-04-25T00:39:08;7.70;;;4.20;;
22219;SDS011;11279;48.364;10.904;2023-04-25T00:40:09;6.50;;;3.77;;
22219;SDS011;11279;48.364;10.904;2023-04-25T00:41:10;6.53;;;3.60;;
22219;SDS011;11279;48.364;10.904;2023-04-25T00:42:10;8.80;;;3.87;;
22219;SDS011;11279;48.364;10.904;2023-04-25T00:43:11;5.43;;;3.67;;
22219;SDS011;11279;48.364;10.904;2023-04-25T00:44:11;7.47;;;3.93;;
22219;SDS011;11279;48.364;10.904;2023-04-25T00:45:12;7.20;;;3.83;;
22219;SDS011;11279;48.364;10.904;2023-04-25T00:46:14;6.95;;;3.95;;
22219;SDS011;11279;48.364;10.904;2023-04-25T00:47:15;5.90;;;3.53;;
22219;SDS011;11279;48.364;10.904;2023-04-25T00:48:15;6.57;;;3.70;;
22219;SDS011;11279;48.364;10.904;2023-04-25T00:49:17;9.32;;;4.25;;
22219;SDS011;11279;48.364;10.904;2023-04-25T00:50:17;7.10;;;4.13;;
22219;SDS011;11279;48.364;10.904;2023-04-25T00:51:19;6.17;;;3.83;;
22219;SDS011;11279;48.364;10.904;2023-04-25T00:52:20;6.82;;;3.72;;
22219;SDS011;11279;48.364;10.904;2023-04-25T00:53:21;7.50;;;4.23;;
22219;SDS011;11279;48.364;10.904;2023-04-25T00:54:22;6.88;;;4.03;;
22219;SDS011;11279;48.364;10.904;2023-04-25T00:55:23;8.40;;;3.67;;
22219;SDS011;11279;48.364;10.904;2023-04-25T00:56:23;6.73;;;4.03;;
22219;SDS011;11279;48.364;10.904;2023-04-25T00:57:24;9.53;;;3.63;;
22219;SDS011;11279;48.364;10.904;2023-04-25T00:58:25;7.30;;;3.63;;
22219;SDS011;11279;48.364;10.904;2023-04-25T00:59:26;6.83;;;3.83;;
22219;SDS011;11279;48.364;10.904;2023-04-25T01:00:28;7.38;;;3.88;;
22219;SDS011;11279;48.364;10.904;2023-04-25T01:01:28;6.50;;;3.67;;
22219;SDS011;11279;48.364;10.904;2023-04-25T01:02:29;7.40;;;4.38;;
22219;SDS011;11279;48.364;10.904;2023-04-25T01:03:32;8.70;;;3.83;;
22219;SDS011;11279;48.364;10.904;2023-04-25T01:04:33;7.47;;;3.70;;
22219;SDS011;11279;48.364;10.904;2023-04-25T01:05:33;8.27;;;3.80;;
22219;SDS011;11279;48.364;10.904;2023-04-25T01:06:33;7.13;;;3.87;;
22219;SDS011;11279;48.364;10.904;2023-04-25T01:07:34;6.77;;;3.90;;
22219;SDS011;11279;48.364;10.904;2023-04-25T01:08:35;7.83;;;3.97;;
22219;SDS011;11279;48.364;10.904;2023-04-25T01:09:36;7.88;;;3.78;;
22219;SDS011;11279;48.364;10.904;2023-04-25T01:10:37;6.63;;;3.97;;
22219;SDS011;11279;48.364;10.904;2023-04-25T01:11:37;6.07;;;3.63;;
22219;SDS011;11279;48.364;10.904;2023-04-25T01:12:40;5.70;;;3.78;;
22219;SDS011;11279;48.364;10.904;2023-04-25T01:13:40;7.63;;;4.10;;
22219;SDS011;11279;48.364;10.904;2023-04-25T01:14:40;7.07;;;4.07;;
22219;SDS011;11279;48.364;10.904;2023-04-25T01:15:41;7.30;;;3.90;;
22219;SDS011;11279;48.364;10.904;2023-04-25T01:16:41;6.23;;;3.73;;
22219;SDS011;11279;48.364;10.904;2023-04-25T01:17:42;5.83;;;4.10;;
22219;SDS011;11279;48.364;10.904;2023-04-25T01:18:45;8.82;;;4.10;;
22219;SDS011;11279;48.364;10.904;2023-04-25T01:19:46;6.55;;;3.50;;
22219;SDS011;11279;48.364;10.904;2023-04-25T01:20:49;7.50;;;3.92;;
22219;SDS011;11279;48.364;10.904;2023-04-25T01:21:51;6.03;;;3.90;;
22219;SDS011;11279;48.364;10.904;2023-04-25T01:22:51;5.87;;;3.87;;
22219;SDS011;11279;48.364;10.904;2023-04-25T01:23:53;8.75;;;4.50;;
22219;SDS011;11279;48.364;10.904;2023-04-25T01:24:54;5.90;;;3.70;;
22219;SDS011;11279;48.364;10.904;2023-04-25T01:25:54;7.70;;;4.30;;
22219;SDS011;11279;48.364;10.904;2023-04-25T01:26:55;7.70;;;4.20;;
22219;SDS011;11279;48.364;10.904;2023-04-25T01:27:56;8.85;;;4.00;;
22219;SDS011;11279;48.364;10.904;2023-04-25T01:28:58;8.88;;;3.95;;
22219;SDS011;11279;48.364;10.904;2023-04-25T01:29:59;5.63;;;3.53;;
22219;SDS011;11279;48.364;10.904;2023-04-25T01:31:00;5.57;;;3.83;;
22219;SDS011;11279;48.364;10.904;2023-04-25T01:32:01;6.68;;;3.60;;
22219;SDS011;11279;48.364;10.904;2023-04-25T01:33:02;8.47;;;3.87;;
22219;SDS011;11279;48.364;10.904;2023-04-25T01:34:04;8.50;;;3.97;;
22219;SDS011;11279;48.364;10.904;2023-04-25T01:35:05;8.03;;;3.70;;
22219;SDS011;11279;48.364;10.904;2023-04-25T01:36:09;6.90;;;3.90;;
22219;SDS011;11279;48.364;10.904;2023-04-25T01:37:10;7.27;;;3.70;;
22219;SDS011;11279;48.364;10.904;2023-04-25T01:38:11;7.37;;;4.00;;
22219;SDS011;11279;48.364;10.904;2023-04-25T01:39:12;9.55;;;4.70;;
22219;SDS011;11279;48.364;10.904;2023-04-25T01:40:12;6.63;;;3.93;;
22219;SDS011;11279;48.364;10.904;2023-04-25T01:41:13;7.83;;;4.50;;
22219;SDS011;11279;48.364;10.904;2023-04-25T01:42:14;6.72;;;4.18;;
22219;SDS011;11279;48.364;10.904;2023-04-25T01:43:15;8.17;;;4.80;;
22219;SDS011;11279;48.364;10.904;2023-04-25T01:44:15;7.70;;;4.70;;
22219;SDS011;11279;48.364;10.904;2023-04-25T01:45:16;7.70;;;4.43;;
22219;SDS011;11279;48.364;10.904;2023-04-25T01:46:17;8.70;;;4.55;;
22219;SDS011;11279;48.364;10.904;2023-04-25T01:47:17;6.30;;;3.93;;
22219;SDS011;11279;48.364;10.904;2023-04-25T01:48:18;6.53;;;4.07;;
22219;SDS011;11279;48.364;10.904;2023-04-25T01:49:18;8.03;;;4.60;;
22219;SDS011;11279;48.364;10.904;2023-04-25T01:50:19;7.70;;;4.47;;
22219;SDS011;11279;48.364;10.904;2023-04-25T01:51:20;8.03;;;4.10;;
22219;SDS011;11279;48.364;10.904;2023-04-25T01:52:20;7.03;;;4.10;;
22219;SDS011;11279;48.364;10.904;2023-04-25T01:53:21;7.57;;;4.17;;
22219;SDS011;11279;48.364;10.904;2023-04-25T01:54:22;8.32;;;4.18;;
22219;SDS011;11279;48.364;10.904;2023-04-25T01:55:23;5.87;;;3.73;;
22219;SDS011;11279;48.364;10.904;2023-04-25T01:56:23;9.53;;;4.00;;
22219;SDS011;11279;48.364;10.904;2023-04-25T01:57:23;10.23;;;4.43;;
22219;SDS011;11279;48.364;10.904;2023-04-25T01:58:24;11.73;;;4.80;;
22219;SDS011;11279;48.364;10.904;2023-04-25T01:59:25;8.80;;;4.43;;
22219;SDS011;11279;48.364;10.904;2023-04-25T02:00:25;11.17;;;4.60;;
22219;SDS011;11279;48.364;10.904;2023-04-25T02:01:26;10.60;;;4.50;;
22219;SDS011;11279;48.364;10.904;2023-04-25T02:02:26;6.70;;;4.63;;
22219;SDS011;11279;48.364;10.904;2023-04-25T02:03:26;6.70;;;4.00;;
22219;SDS011;11279;48.364;10.904;2023-04-25T02:04:27;5.93;;;3.97;;
22219;SDS011;11279;48.364;10.904;2023-04-25T02:05:27;6.13;;;3.87;;
22219;SDS011;11279;48.364;10.904;2023-04-25T02:06:28;10.93;;;4.55;;
22219;SDS011;11279;48.364;10.904;2023-04-25T02:07:31;6.80;;;4.30;;
22219;SDS011;11279;48.364;10.904;2023-04-25T02:08:32;11.73;;;5.13;;
22219;SDS011;11279;48.364;10.904;2023-04-25T02:09:32;10.13;;;4.40;;
22219;SDS011;11279;48.364;10.904;2023-04-25T02:10:33;9.73;;;4.30;;
22219;SDS011;11279;48.364;10.904;2023-04-25T02:11:33;8.60;;;4.50;;
22219;SDS011;11279;48.364;10.904;2023-04-25T02:12:34;8.93;;;4.87;;
22219;SDS011;11279;48.364;10.904;2023-04-25T02:13:35;6.47;;;4.20;;
22219;SDS011;11279;48.364;10.904;2023-04-25T02:14:36;7.43;;;4.47;;
22219;SDS011;11279;48.364;10.904;2023-04-25T02:15:36;8.17;;;4.37;;
22219;SDS011;11279;48.364;10.904;2023-04-25T02:16:36;8.97;;;4.40;;
22219;SDS011;11279;48.364;10.904;2023-04-25T02:17:37;10.70;;;4.80;;
22219;SDS011;11279;48.364;10.904;2023-04-25T02:18:37;7.27;;;4.30;;
22219;SDS011;11279;48.364;10.904;2023-04-25T02:19:39;7.35;;;4.25;;
22219;SDS011;11279;48.364;10.904;2023-04-25T02:20:39;7.90;;;4.77;;
22219;SDS011;11279;48.364;10.904;2023-04-25T02:21:40;6.37;;;4.10;;
22219;SDS011;11279;48.364;10.904;2023-04-25T02:22:40;7.60;;;4.70;;
22219;SDS011;11279;48.364;10.904;2023-04-25T02:23:41;5.97;;;3.72;;
22219;SDS011;11279;48.364;10.904;2023-04-25T02:24:42;8.07;;;4.30;;
22219;SDS011;11279;48.364;10.904;2023-04-25T02:25:42;10.33;;;4.47;;
22219;SDS011;11279;48.364;10.904;2023-04-25T02:26:43;10.37;;;4.30;;
22219;SDS011;11279;48.364;10.904;2023-04-25T02:27:44;10.15;;;4.70;;
22219;SDS011;11279;48.364;10.904;2023-04-25T02:28:44;8.90;;;4.17;;
22219;SDS011;11279;48.364;10.904;2023-04-25T02:29:44;10.53;;;4.73;;
22219;SDS011;11279;48.364;10.904;2023-04-25T02:30:45;7.37;;;4.30;;
22219;SDS011;11279;48.364;10.904;2023-04-25T02:31:45;8.03;;;4.87;;
22219;SDS011;11279;48.364;10.904;2023-04-25T02:32:46;8.83;;;4.40;;
22219;SDS011;11279;48.364;10.904;2023-04-25T02:33:47;7.60;;;4.40;;
22219;SDS011;11279;48.364;10.904;2023-04-25T02:34:47;8.47;;;4.40;;
22219;SDS011;11279;48.364;10.904;2023-04-25T02:35:48;7.50;;;4.30;;
22219;SDS011;11279;48.364;10.904;2023-04-25T02:36:48;9.60;;;4.53;;
22219;SDS011;11279;48.364;10.904;2023-04-25T02:37:52;6.57;;;4.60;;
22219;SDS011;11279;48.364;10.904;2023-04-25T02:38:52;6.20;;;3.83;;
22219;SDS011;11279;48.364;10.904;2023-04-25T02:39:53;11.40;;;4.27;;
22219;SDS011;11279;48.364;10.904;2023-04-25T02:40:53;7.03;;;4.07;;
22219;SDS011;11279;48.364;10.904;2023-04-25T02:41:53;9.43;;;4.77;;
22219;SDS011;11279;48.364;10.904;2023-04-25T02:42:54;7.20;;;4.27;;
22219;SDS011;11279;48.364;10.904;2023-04-25T02:43:54;9.43;;;4.47;;
22219;SDS011;11279;48.364;10.904;2023-04-25T02:44:55;8.03;;;3.73;;
22219;SDS011;11279;48.364;10.904;2023-04-25T02:45:55;10.03;;;4.60;;
22219;SDS011;11279;48.364;10.904;2023-04-25T02:46:56;8.30;;;4.53;;
22219;SDS011;11279;48.364;10.904;2023-04-25T02:47:56;6.43;;;4.30;;
22219;SDS011;11279;48.364;10.904;2023-04-25T02:48:57;7.63;;;4.47;;
22219;SDS011;11279;48.364;10.904;2023-04-25T02:49:57;6.23;;;3.63;;
22219;SDS011;11279;48.364;10.904;2023-04-25T02:50:57;6.07;;;4.10;;
22219;SDS011;11279;48.364;10.904;2023-04-25T02:51:58;7.70;;;3.70;;
22219;SDS011;11279;48.364;10.904;2023-04-25T02:52:58;7.80;;;3.80;;
22219;SDS011;11279;48.364;10.904;2023-04-25T02:53:59;7.70;;;4.57;;
22219;SDS011;11279;48.364;10.904;2023-04-25T02:54:59;6.87;;;3.87;;
22219;SDS011;11279;48.364;10.904;2023-04-25T02:56:00;7.47;;;4.13;;
22219;SDS011;11279;48.364;10.904;2023-04-25T02:57:00;9.70;;;3.93;;
22219;SDS011;11279;48.364;10.904;2023-04-25T02:58:02;7.70;;;3.85;;
22219;SDS011;11279;48.364;10.904;2023-04-25T02:59:02;7.73;;;3.80;;
22219;SDS011;11279;48.364;10.904;2023-04-25T03:00:03;7.30;;;3.30;;
22219;SDS011;11279;48.364;10.904;2023-04-25T03:01:05;10.35;;;3.60;;
22219;SDS011;11279;48.364;10.904;2023-04-25T03:02:05;7.10;;;3.90;;
22219;SDS011;11279;48.364;10.904;2023-04-25T03:03:06;7.87;;;3.67;;
22219;SDS011;11279;48.364;10.904;2023-04-25T03:04:06;6.27;;;3.40;;
22219;SDS011;11279;48.364;10.904;2023-04-25T03:05:07;6.13;;;3.07;;
22219;SDS011;11279;48.364;10.904;2023-04-25T03:06:07;5.17;;;3.23;;
22219;SDS011;11279;48.364;10.904;2023-04-25T03:07:07;6.17;;;3.03;;
22219;SDS011;11279;48.364;10.904;2023-04-25T03:08:08;7.00;;;3.10;;
22219;SDS011;11279;48.364;10.904;2023-04-25T03:09:08;9.57;;;3.10;;
22219;SDS011;11279;48.364;10.904;2023-04-25T03:10:09;6.73;;;3.23;;
22219;SDS011;11279;48.364;10.904;2023-04-25T03:11:10;6.15;;;2.83;;
22219;SDS011;11279;48.364;10.904;2023-04-25T03:12:10;6.93;;;3.53;;
22219;SDS011;11279;48.364;10.904;2023-04-25T03:13:11;6.77;;;3.40;;
22219;SDS011;11279;48.364;10.904;2023-04-25T03:14:12;6.30;;;3.07;;
22219;SDS011;11279;48.364;10.904;2023-04-25T03:15:12;4.68;;;2.75;;
22219;SDS011;11279;48.364;10.904;2023-04-25T03:16:13;6.03;;;3.10;;
22219;SDS011;11279;48.364;10.904;2023-04-25T03:17:13;8.30;;;3.20;;
22219;SDS011;11279;48.364;10.904;2023-04-25T03:18:14;10.97;;;3.40;;
22219;SDS011;11279;48.364;10.904;2023-04-25T03:19:14;7.37;;;3.33;;
22219;SDS011;11279;48.364;10.904;2023-04-25T03:20:17;7.38;;;3.30;;
22219;SDS011;11279;48.364;10.904;2023-04-25T03:21:17;5.43;;;3.00;;
22219;SDS011;11279;48.364;10.904;2023-04-25T03:22:17;8.67;;;3.10;;
22219;SDS011;11279;48.364;10.904;2023-04-25T03:23:18;7.00;;;3.00;;
22219;SDS011;11279;48.364;10.904;2023-04-25T03:24:18;6.73;;;3.17;;
22219;SDS011;11279;48.364;10.904;2023-04-25T03:25:19;7.47;;;3.53;;
22219;SDS011;11279;48.364;10.904;2023-04-25T03:26:19;6.60;;;3.33;;
22219;SDS011;11279;48.364;10.904;2023-04-25T03:27:20;6.53;;;3.22;;
22219;SDS011;11279;48.364;10.904;2023-04-25T03:28:21;8.03;;;2.97;;
22219;SDS011;11279;48.364;10.904;2023-04-25T03:29:22;6.03;;;3.30;;
22219;SDS011;11279;48.364;10.904;2023-04-25T03:30:24;7.43;;;3.38;;
22219;SDS011;11279;48.364;10.904;2023-04-25T03:31:25;7.73;;;3.37;;
22219;SDS011;11279;48.364;10.904;2023-04-25T03:32:25;4.50;;;2.93;;
22219;SDS011;11279;48.364;10.904;2023-04-25T03:33:26;6.50;;;3.37;;
22219;SDS011;11279;48.364;10.904;2023-04-25T03:34:26;8.27;;;3.80;;
22219;SDS011;11279;48.364;10.904;2023-04-25T03:35:27;6.43;;;3.20;;
22219;SDS011;11279;48.364;10.904;2023-04-25T03:36:27;7.50;;;3.20;;
22219;SDS011;11279;48.364;10.904;2023-04-25T03:37:28;6.53;;;3.43;;
22219;SDS011;11279;48.364;10.904;2023-04-25T03:38:28;6.70;;;3.00;;
22219;SDS011;11279;48.364;10.904;2023-04-25T03:39:28;7.77;;;3.70;;
22219;SDS011;11279;48.364;10.904;2023-04-25T03:40:30;5.43;;;3.13;;
22219;SDS011;11279;48.364;10.904;2023-04-25T03:41:30;5.40;;;3.30;;
22219;SDS011;11279;48.364;10.904;2023-04-25T03:42:30;6.83;;;3.40;;
22219;SDS011;11279;48.364;10.904;2023-04-25T03:43:31;5.70;;;3.07;;
22219;SDS011;11279;48.364;10.904;2023-04-25T03:44:31;6.17;;;3.47;;
22219;SDS011;11279;48.364;10.904;2023-04-25T03:45:32;5.73;;;2.87;;
22219;SDS011;11279;48.364;10.904;2023-04-25T03:46:32;9.60;;;3.50;;
22219;SDS011;11279;48.364;10.904;2023-04-25T03:47:33;8.07;;;2.93;;
22219;SDS011;11279;48.364;10.904;2023-04-25T03:48:33;8.80;;;3.47;;
22219;SDS011;11279;48.364;10.904;2023-04-25T03:49:34;5.07;;;3.10;;
22219;SDS011;11279;48.364;10.904;2023-04-25T03:50:34;5.20;;;3.27;;
22219;SDS011;11279;48.364;10.904;2023-04-25T03:51:35;5.43;;;2.80;;
22219;SDS011;11279;48.364;10.904;2023-04-25T03:52:35;8.20;;;3.43;;
22219;SDS011;11279;48.364;10.904;2023-04-25T03:53:35;5.53;;;3.07;;
22219;SDS011;11279;48.364;10.904;2023-04-25T03:54:36;8.03;;;3.80;;
22219;SDS011;11279;48.364;10.904;2023-04-25T03:55:36;6.53;;;2.93;;
22219;SDS011;11279;48.364;10.904;2023-04-25T03:56:37;8.07;;;3.27;;
22219;SDS011;11279;48.364;10.904;2023-04-25T03:57:37;5.07;;;3.10;;
22219;SDS011;11279;48.364;10.904;2023-04-25T03:58:38;7.00;;;2.90;;
22219;SDS011;11279;48.364;10.904;2023-04-25T03:59:38;6.07;;;3.23;;
22219;SDS011;11279;48.364;10.904;2023-04-25T04:00:38;6.87;;;3.23;;
22219;SDS011;11279;48.364;10.904;2023-04-25T04:01:39;7.27;;;3.27;;
22219;SDS011;11279;48.364;10.904;2023-04-25T04:02:39;4.93;;;2.83;;
22219;SDS011;11279;48.364;10.904;2023-04-25T04:03:40;9.13;;;4.17;;
22219;SDS011;11279;48.364;10.904;2023-04-25T04:04:40;6.17;;;2.83;;
22219;SDS011;11279;48.364;10.904;2023-04-25T04:05:40;5.37;;;2.90;;
22219;SDS011;11279;48.364;10.904;2023-04-25T04:06:41;4.97;;;2.90;;
22219;SDS011;11279;48.364;10.904;2023-04-25T04:07:42;5.85;;;2.83;;
22219;SDS011;11279;48.364;10.904;2023-04-25T04:08:42;7.03;;;3.10;;
22219;SDS011;11279;48.364;10.904;2023-04-25T04:09:43;6.67;;;3.10;;
22219;SDS011;11279;48.364;10.904;2023-04-25T04:10:43;4.97;;;2.60;;
22219;SDS011;11279;48.364;10.904;2023-04-25T04:11:44;5.40;;;2.60;;
22219;SDS011;11279;48.364;10.904;2023-04-25T04:12:44;5.53;;;2.43;;
22219;SDS011;11279;48.364;10.904;2023-04-25T04:13:45;5.03;;;3.00;;
22219;SDS011;11279;48.364;10.904;2023-04-25T04:14:45;4.53;;;2.83;;
22219;SDS011;11279;48.364;10.904;2023-04-25T04:15:46;10.63;;;3.40;;
22219;SDS011;11279;48.364;10.904;2023-04-25T04:16:46;6.87;;;3.53;;
22219;SDS011;11279;48.364;10.904;2023-04-25T04:17:47;6.43;;;3.00;;
22219;SDS011;11279;48.364;10.904;2023-04-25T04:18:48;5.03;;;2.88;;
22219;SDS011;11279;48.364;10.904;2023-04-25T04:19:48;7.37;;;2.50;;
22219;SDS011;11279;48.364;10.904;2023-04-25T04:20:49;7.20;;;2.57;;
22219;SDS011;11279;48.364;10.904;2023-04-25T04:21:50;6.83;;;3.00;;
22219;SDS011;11279;48.364;10.904;2023-04-25T04:22:51;6.70;;;2.77;;
22219;SDS011;11279;48.364;10.904;2023-04-25T04:23:51;5.50;;;3.00;;
22219;SDS011;11279;48.364;10.904;2023-04-25T04:24:52;7.25;;;2.97;;
22219;SDS011;11279;48.364;10.904;2023-04-25T04:25:53;7.97;;;3.10;;
22219;SDS011;11279;48.364;10.904;2023-04-25T04:26:54;5.82;;;2.70;;
22219;SDS011;11279;48.364;10.904;2023-04-25T04:27:55;7.10;;;2.53;;
22219;SDS011;11279;48.364;10.904;2023-04-25T04:28:55;5.20;;;2.73;;
22219;SDS011;11279;48.364;10.904;2023-04-25T04:29:55;4.33;;;2.70;;
22219;SDS011;11279;48.364;10.904;2023-04-25T04:30:57;5.50;;;2.72;;
22219;SDS011;11279;48.364;10.904;2023-04-25T04:31:58;5.53;;;3.00;;
22219;SDS011;11279;48.364;10.904;2023-04-25T04:32:58;5.37;;;2.40;;
22219;SDS011;11279;48.364;10.904;2023-04-25T04:33:58;4.00;;;2.40;;
22219;SDS011;11279;48.364;10.904;2023-04-25T04:34:59;7.03;;;2.57;;
22219;SDS011;11279;48.364;10.904;2023-04-25T04:36:00;9.97;;;2.60;;
22219;SDS011;11279;48.364;10.904;2023-04-25T04:37:01;4.43;;;2.50;;
22219;SDS011;11279;48.364;10.904;2023-04-25T04:38:01;6.40;;;2.50;;
22219;SDS011;11279;48.364;10.904;2023-04-25T04:39:02;6.43;;;2.60;;
22219;SDS011;11279;48.364;10.904;2023-04-25T04:40:03;4.82;;;2.22;;
22219;SDS011;11279;48.364;10.904;2023-04-25T04:41:05;5.95;;;2.60;;
22219;SDS011;11279;48.364;10.904;2023-04-25T04:42:05;4.40;;;2.67;;
22219;SDS011;11279;48.364;10.904;2023-04-25T04:43:06;3.83;;;2.47;;
22219;SDS011;11279;48.364;10.904;2023-04-25T04:44:08;3.80;;;2.58;;
22219;SDS011;11279;48.364;10.904;2023-04-25T04:45:10;8.75;;;2.60;;
22219;SDS011;11279;48.364;10.904;2023-04-25T04:46:10;6.93;;;2.50;;
22219;SDS011;11279;48.364;10.904;2023-04-25T04:47:12;5.60;;;2.42;;
22219;SDS011;11279;48.364;10.904;2023-04-25T04:48:14;3.55;;;2.42;;
22219;SDS011;11279;48.364;10.904;2023-04-25T04:49:14;5.27;;;2.60;;
22219;SDS011;11279;48.364;10.904;2023-04-25T04:50:15;4.93;;;2.60;;
22219;SDS011;11279;48.364;10.904;2023-04-25T04:51:16;5.43;;;2.53;;
22219;SDS011;11279;48.364;10.904;2023-04-25T04:52:16;4.77;;;2.47;;
22219;SDS011;11279;48.364;10.904;2023-04-25T04:53:17;4.93;;;2.60;;
22219;SDS011;11279;48.364;10.904;2023-04-25T04:54:17;4.90;;;2.43;;
22219;SDS011;11279;48.364;10.904;2023-04-25T04:55:17;4.00;;;2.60;;
22219;SDS011;11279;48.364;10.904;2023-04-25T04:56:18;8.20;;;3.27;;
22219;SDS011;11279;48.364;10.904;2023-04-25T04:57:20;5.60;;;2.72;;
22219;SDS011;11279;48.364;10.904;2023-04-25T04:58:21;6.33;;;2.90;;
22219;SDS011;11279;48.364;10.904;2023-04-25T04:59:21;6.93;;;2.47;;
22219;SDS011;11279;48.364;10.904;2023-04-25T05:00:22;5.10;;;2.83;;
22219;SDS011;11279;48.364;10.904;2023-04-25T05:01:22;7.07;;;2.90;;
22219;SDS011;11279;48.364;10.904;2023-04-25T05:02:23;6.07;;;2.80;;
22219;SDS011;11279;48.364;10.904;2023-04-25T05:03:23;5.93;;;2.80;;
22219;SDS011;11279;48.364;10.904;2023-04-25T05:04:23;6.53;;;2.53;;
22219;SDS011;11279;48.364;10.904;2023-04-25T05:05:24;5.20;;;2.50;;
22219;SDS011;11279;48.364;10.904;2023-04-25T05:06:25;5.07;;;2.53;;
22219;SDS011;11279;48.364;10.904;2023-04-25T05:07:25;6.23;;;2.60;;
22219;SDS011;11279;48.364;10.904;2023-04-25T05:08:26;5.50;;;2.47;;
22219;SDS011;11279;48.364;10.904;2023-04-25T05:09:26;14.37;;;3.13;;
22219;SDS011;11279;48.364;10.904;2023-04-25T05:10:27;5.70;;;2.77;;
22219;SDS011;11279;48.364;10.904;2023-04-25T05:11:27;5.30;;;2.50;;
22219;SDS011;11279;48.364;10.904;2023-04-25T05:12:28;5.40;;;2.37;;
22219;SDS011;11279;48.364;10.904;2023-04-25T05:13:28;6.70;;;2.63;;
22219;SDS011;11279;48.364;10.904;2023-04-25T05:14:28;5.70;;;3.00;;
22219;SDS011;11279;48.364;10.904;2023-04-25T05:15:29;4.57;;;2.50;;
22219;SDS011;11279;48.364;10.904;2023-04-25T05:16:29;5.77;;;2.77;;
22219;SDS011;11279;48.364;10.904;2023-04-25T05:17:30;6.37;;;3.33;;
22219;SDS011;11279;48.364;10.904;2023-04-25T05:18:30;7.70;;;3.13;;
22219;SDS011;11279;48.364;10.904;2023-04-25T05:19:31;5.37;;;2.70;;
22219;SDS011;11279;48.364;10.904;2023-04-25T05:20:32;4.03;;;2.40;;
22219;SDS011;11279;48.364;10.904;2023-04-25T05:21:32;5.60;;;2.97;;
22219;SDS011;11279;48.364;10.904;2023-04-25T05:22:33;6.30;;;3.03;;
22219;SDS011;11279;48.364;10.904;2023-04-25T05:23:33;4.13;;;2.40;;
22219;SDS011;11279;48.364;10.904;2023-04-25T05:24:33;5.10;;;2.83;;
22219;SDS011;11279;48.364;10.904;2023-04-25T05:25:34;5.20;;;2.90;;
22219;SDS011;11279;48.364;10.904;2023-04-25T05:26:34;6.37;;;2.43;;
22219;SDS011;11279;48.364;10.904;2023-04-25T05:27:35;11.10;;;3.00;;
22219;SDS011;11279;48.364;10.904;2023-04-25T05:28:36;6.97;;;3.27;;
22219;SDS011;11279;48.364;10.904;2023-04-25T05:29:37;6.88;;;3.05;;
22219;SDS011;11279;48.364;10.904;2023-04-25T05:30:37;5.70;;;2.97;;
22219;SDS011;11279;48.364;10.904;2023-04-25T05:31:38;6.53;;;2.83;;
22219;SDS011;11279;48.364;10.904;2023-04-25T05:32:38;7.23;;;3.33;;
22219;SDS011;11279;48.364;10.904;2023-04-25T05:33:38;8.13;;;2.63;;
22219;SDS011;11279;48.364;10.904;2023-04-25T05:34:39;9.10;;;3.20;;
22219;SDS011;11279;48.364;10.904;2023-04-25T05:35:40;8.77;;;3.10;;
22219;SDS011;11279;48.364;10.904;2023-04-25T05:36:40;6.23;;;3.13;;
22219;SDS011;11279;48.364;10.904;2023-04-25T05:37:41;4.23;;;2.73;;
22219;SDS011;11279;48.364;10.904;2023-04-25T05:38:41;4.83;;;3.10;;
22219;SDS011;11279;48.364;10.904;2023-04-25T05:39:42;4.17;;;2.73;;
22219;SDS011;11279;48.364;10.904;2023-04-25T05:40:42;5.43;;;3.03;;
22219;SDS011;11279;48.364;10.904;2023-04-25T05:41:43;6.43;;;3.00;;
22219;SDS011;11279;48.364;10.904;2023-04-25T05:42:43;7.50;;;3.57;;
22219;SDS011;11279;48.364;10.904;2023-04-25T05:43:44;5.50;;;2.80;;
22219;SDS011;11279;48.364;10.904;2023-04-25T05:44:47;5.45;;;3.10;;
22219;SDS011;11279;48.364;10.904;2023-04-25T05:45:47;5.97;;;2.77;;
22219;SDS011;11279;48.364;10.904;2023-04-25T05:46:48;4.93;;;2.80;;
22219;SDS011;11279;48.364;10.904;2023-04-25T05:47:48;5.83;;;2.73;;
22219;SDS011;11279;48.364;10.904;2023-04-25T05:48:49;5.33;;;2.83;;
22219;SDS011;11279;48.364;10.904;2023-04-25T05:49:49;5.27;;;2.70;;
22219;SDS011;11279;48.364;10.904;2023-04-25T05:50:50;5.77;;;3.30;;
22219;SDS011;11279;48.364;10.904;2023-04-25T05:51:51;6.57;;;3.03;;
22219;SDS011;11279;48.364;10.904;2023-04-25T05:52:52;5.10;;;3.00;;
22219;SDS011;11279;48.364;10.904;2023-04-25T05:53:52;7.17;;;3.07;;
22219;SDS011;11279;48.364;10.904;2023-04-25T05:54:53;6.23;;;3.00;;
22219;SDS011;11279;48.364;10.904;2023-04-25T05:55:53;4.73;;;2.37;;
22219;SDS011;11279;48.364;10.904;2023-04-25T05:56:53;8.90;;;3.30;;
22219;SDS011;11279;48.364;10.904;2023-04-25T05:57:54;5.10;;;2.67;;
22219;SDS011;11279;48.364;10.904;2023-04-25T05:58:54;8.17;;;3.07;;
22219;SDS011;11279;48.364;10.904;2023-04-25T05:59:55;7.00;;;3.00;;